Latest Weather Observations for Kuitpo

IDS60901

Issued at 7:01 am CDT Tuesday 3 March 2015 (issued every 10 minutes, with the page automatically refreshed every 10 minutes)

About weather observations | Map of Adelaide area stations | Latest observations for Adelaide area | Other Formats
Station Details ID: 023887 Name: KUITPO FOREST RESERVE Lat: -35.17 Lon: 138.68 Height: 365.0 m
Data from the previous 72 hours. | See also: Recent months at Kuitpo
Date/Time
CDT
Tmp

°C
App
Tmp
°C
Dew
Point
°C
Rel
Hum
%
Delta-T

°C
Wind Press
QNH
hPa
Press
MSL
hPa
Rain
since
9 am
mm
Dir
 
Spd
km/h
Gust
km/h
Spd
kts
Gust
kts
03/07:00am 12.2 9.3 12.2 100 0.0 SE 19 28 10 15 1016.0 1015.0 0.0
03/06:30am 12.3 9.4 12.3 100 0.0 ESE 19 24 10 13 1015.9 1014.9 0.0
03/06:00am 12.5 9.5 12.5 100 0.0 SE 20 30 11 16 1015.7 1014.7 0.0
03/05:30am 12.5 9.7 12.5 100 0.0 ESE 19 30 10 16 1015.7 1014.7 0.0
03/05:00am 12.7 9.9 12.7 100 0.0 SE 19 28 10 15 1015.5 1014.5 0.0
03/04:30am 12.9 10.5 12.7 99 0.1 ESE 17 24 9 13 1015.5 1014.5 0.0
03/04:00am 13.1 10.7 12.8 98 0.2 ESE 17 32 9 17 1015.5 1014.5 0.0
03/03:30am 13.3 10.6 12.8 97 0.3 ESE 19 26 10 14 1015.5 1014.5 0.0
03/03:00am 13.5 10.8 13.0 97 0.3 SE 19 32 10 17 1015.7 1014.7 0.0
03/02:30am 13.8 11.0 13.2 96 0.3 SE 20 28 11 15 1015.8 1014.8 0.0
03/02:00am 14.0 11.5 13.5 97 0.3 SE 19 30 10 16 1015.9 1014.9 0.0
03/01:30am 14.2 11.6 13.7 97 0.3 SE 20 30 11 16 1015.8 1014.8 0.0
03/01:00am 14.4 12.4 13.8 96 0.3 SSE 17 28 9 15 1016.0 1015.0 0.0
03/12:30am 14.7 12.5 14.4 98 0.2 SSE 19 28 10 15 1015.9 1014.9 0.0
03/12:00am 14.8 13.1 14.6 99 0.1 SSE 17 32 9 17 1016.2 1015.1 0.0
 
Date/Time
CDT
Tmp

°C
App
Tmp
°C
Dew
Point
°C
Rel
Hum
%
Delta-T

°C
Wind Press
QNH
hPa
Press
MSL
hPa
Rain
since
9 am
mm
Dir
 
Spd
km/h
Gust
km/h
Spd
kts
Gust
kts
02/11:30pm 14.9 13.3 14.9 100 0.0 SE 17 22 9 12 1016.2 1015.1 0.0
02/11:00pm 15.1 13.8 14.8 98 0.2 SE 15 24 8 13 1016.2 1015.1 0.0
02/10:30pm 15.3 14.6 14.3 94 0.6 SE 11 17 6 9 1016.5 1015.5 0.0
02/10:00pm 15.4 14.5 13.6 89 1.0 SE 11 19 6 10 1016.2 1015.1 0.0
02/09:30pm 16.4 14.7 12.4 77 2.2 SE 13 22 7 12 1016.0 1015.0 0.0
02/09:00pm 17.5 15.8 11.1 66 3.5 SSE 11 26 6 14 1015.6 1014.6 0.0
02/08:30pm 18.8 17.0 9.6 55 5.0 SE 9 15 5 8 1015.0 1014.0 0.0
02/08:00pm 19.9 18.2 7.6 45 6.4 ESE 6 13 3 7 1014.6 1013.6 0.0
02/07:30pm 20.5 18.3 5.3 37 7.6 SW 6 9 3 5 1014.6 1013.6 0.0
02/07:00pm 21.2 17.9 4.7 34 8.2 SSW 11 17 6 9 1014.1 1013.1 0.0
02/06:30pm 21.6 18.1 5.5 35 8.2 SW 13 20 7 11 1013.9 1012.8 0.0
02/06:00pm 22.4 20.0 5.4 33 8.7 WSW 7 11 4 6 1013.8 1012.7 0.0
02/05:30pm 22.5 18.8 4.5 31 9.0 SW 13 17 7 9 1013.7 1012.6 0.0
02/05:00pm 22.5 19.7 5.0 32 8.8 SSW 9 15 5 8 1013.6 1012.5 0.0
02/04:30pm 22.0 18.4 5.0 33 8.6 W 13 17 7 9 1013.6 1012.5 0.0
02/04:00pm 22.3 18.5 3.9 30 9.1 SW 13 20 7 11 1013.2 1012.2 0.0
02/03:30pm 22.8 18.9 5.3 32 8.9 WSW 15 22 8 12 1013.8 1012.7 0.0
02/03:00pm 24.0 20.2 5.8 31 9.4 W 15 24 8 13 1013.8 1012.7 0.0
02/02:30pm 23.8 20.0 5.7 31 9.3 WSW 15 26 8 14 1013.7 1012.6 0.0
02/02:00pm 24.0 21.0 5.8 31 9.4 W 11 20 6 11 1013.6 1012.5 0.0
02/01:30pm 23.5 20.6 4.5 29 9.6 WNW 9 17 5 9 1013.4 1012.3 0.0
02/01:00pm 23.8 20.6 5.2 30 9.5 WSW 11 17 6 9 1013.6 1012.5 0.0
02/12:30pm 23.1 20.3 6.8 35 8.5 WNW 11 20 6 11 1014.4 1013.4 0.0
02/12:00pm 23.2 20.7 6.5 34 8.7 N 9 15 5 8 1014.4 1013.4 0.0
02/11:30am 21.7 19.2 8.2 42 7.2 NNE 11 15 6 8 1014.7 1013.7 0.0
02/11:00am 20.4 18.3 8.4 46 6.4 NE 9 19 5 10 1015.6 1014.6 0.0
02/10:30am 18.8 15.2 8.2 50 5.6 ENE 17 24 9 13 1015.5 1014.5 0.0
02/10:00am 18.1 14.6 8.9 55 4.9 NE 17 28 9 15 1015.6 1014.6 0.0
02/09:30am 15.8 12.0 9.2 65 3.5 ENE 19 28 10 15 1015.6 1014.6 0.0
02/09:00am 14.8 10.8 9.0 68 3.0 NE 20 30 11 16 1015.3 1014.3 0.0
02/08:30am 13.7 9.7 9.2 74 2.3 ENE 20 32 11 17 1015.2 1014.2 0.0
02/08:00am 13.1 8.8 9.2 77 2.0 ENE 22 30 12 16 1015.4 1014.4 0.0
02/07:30am 12.6 8.9 9.4 81 1.7 ENE 19 24 10 13 1015.3 1014.3 0.0
02/07:00am 12.6 9.0 9.8 83 1.5 E 19 26 10 14 1014.8 1013.8 0.0
02/06:30am 12.1 9.0 10.2 88 1.0 E 17 20 9 11 1014.9 1013.9 0.0
02/06:00am 12.3 8.9 10.5 89 0.9 E 19 24 10 13 1014.7 1013.7 0.0
02/05:30am 11.8 8.2 10.7 93 0.6 ESE 20 26 11 14 1014.3 1013.3 0.0
02/05:00am 11.6 8.1 11.0 96 0.3 ESE 20 26 11 14 1014.1 1013.1 0.0
02/04:30am 11.6 8.2 11.1 97 0.3 ESE 20 30 11 16 1014.3 1013.3 0.0
02/04:00am 11.4 8.0 11.1 98 0.2 SE 20 28 11 15 1014.5 1013.5 0.0
02/03:30am 11.7 8.0 11.4 98 0.2 SE 22 28 12 15 1014.7 1013.7 0.0
02/03:00am 11.7 8.4 11.5 99 0.1 SE 20 30 11 16 1014.8 1013.8 0.0
02/02:30am 11.6 7.5 11.6 100 0.0 SE 24 32 13 17 1015.1 1014.1 0.0
02/02:00am 11.6 8.3 11.6 100 0.0 SE 20 30 11 16 1015.9 1014.9 0.0
02/01:30am 11.6 8.9 11.6 100 0.0 ESE 17 26 9 14 1016.0 1015.0 0.0
02/01:00am 11.9 8.8 11.7 99 0.1 ESE 19 26 10 14 1016.0 1015.0 0.0
02/12:30am 12.1 8.1 11.8 98 0.2 ESE 24 35 13 19 1015.7 1014.7 0.0
02/12:00am 12.3 7.9 11.7 96 0.3 ESE 26 39 14 21 1015.9 1014.9 0.0
 
Date/Time
CDT
Tmp

°C
App
Tmp
°C
Dew
Point
°C
Rel
Hum
%
Delta-T

°C
Wind Press
QNH
hPa
Press
MSL
hPa
Rain
since
9 am
mm
Dir
 
Spd
km/h
Gust
km/h
Spd
kts
Gust
kts
01/11:30pm 12.5 8.1 11.6 94 0.5 SE 26 41 14 22 1016.4 1015.3 0.0
01/11:00pm 12.6 8.5 11.5 93 0.6 SE 24 39 13 21 1016.7 1015.7 0.0
01/10:30pm 12.7 8.6 11.3 91 0.8 SE 24 35 13 19 1016.7 1015.7 0.0
01/10:00pm 12.8 8.7 11.4 91 0.8 SE 24 37 13 20 1016.9 1015.9 0.0
01/09:30pm 12.8 9.1 11.4 91 0.8 SE 22 35 12 19 1017.0 1016.0 0.0
01/09:00pm 12.9 9.1 11.1 89 1.0 SE 22 33 12 18 1016.7 1015.7 0.0
01/08:30pm 13.1 9.2 10.8 86 1.2 SSE 22 37 12 20 1016.6 1015.6 0.0
01/08:00pm 13.5 9.9 10.5 82 1.6 SE 20 32 11 17 1015.8 1014.8 0.0
01/07:30pm 14.3 10.2 10.1 76 2.2 SE 22 39 12 21 1015.5 1014.5 0.0
01/07:00pm 15.3 11.5 9.7 69 3.0 SE 20 35 11 19 1015.7 1014.7 0.0
01/06:30pm 16.1 12.2 9.5 65 3.5 SSE 20 35 11 19 1015.6 1014.6 0.0
01/06:00pm 16.9 12.8 8.6 58 4.3 SSE 20 30 11 16 1015.8 1014.8 0.0
01/05:30pm 17.9 14.3 8.2 53 5.1 SSE 17 30 9 16 1015.5 1014.5 0.0
01/05:00pm 17.7 13.6 7.7 52 5.2 SSE 19 30 10 16 1015.6 1014.6 0.0
01/04:30pm 18.8 14.7 7.9 49 5.7 SSE 19 32 10 17 1015.8 1014.8 0.0
01/04:00pm 18.6 14.5 8.6 52 5.3 SE 20 33 11 18 1015.4 1014.4 0.0
01/03:30pm 19.1 15.6 8.7 51 5.5 SE 17 28 9 15 1015.9 1014.9 0.0
01/03:00pm 19.1 15.1 9.0 52 5.4 SE 20 35 11 19 1015.7 1014.7 0.0
01/02:30pm 18.9 15.1 9.1 53 5.2 SE 19 35 10 19 1016.2 1015.1 0.0
01/02:00pm 19.1 15.8 8.1 49 5.8 SE 15 37 8 20 1016.0 1015.0 0.0
01/01:30pm 17.8 15.1 10.2 61 4.1 SE 15 24 8 13 1016.5 1015.5 0.0
01/01:00pm 18.8 15.5 9.6 55 5.0 SSE 17 28 9 15 1016.6 1015.6 0.0
01/12:30pm 18.2 14.7 8.7 54 5.0 SSE 17 28 9 15 1016.9 1015.9 0.0
01/12:00pm 18.7 15.2 8.7 52 5.3 SSE 17 28 9 15 1016.8 1015.8 0.0
01/11:30am 18.1 14.2 8.7 54 5.0 S 19 39 10 21 1016.8 1015.8 0.0
01/11:00am 16.3 12.5 7.5 56 4.5 SE 17 28 9 15 1016.5 1015.5 0.0
01/10:30am 16.1 12.7 9.1 63 3.7 SSE 17 35 9 19 1016.4 1015.3 0.0
01/10:00am 16.1 13.0 8.8 62 3.8 SE 15 26 8 14 1016.0 1014.7 0.0
01/09:30am 15.5 11.5 9.2 66 3.3 S 20 32 11 17 1015.7 1014.4 0.0
01/09:00am 15.4 12.0 9.3 67 3.2 SSE 17 28 9 15 1015.3 1014.0 0.2
01/08:30am 13.8 11.6 9.5 75 2.2 SSW 11 15 6 8 1015.0 1013.7 0.2
01/08:00am 13.3 10.8 8.4 72 2.5 SSW 11 17 6 9 1014.7 1013.4 0.2
01/07:30am 12.8 10.1 7.5 70 2.6 SSW 11 17 6 9 1014.2 1012.8 0.2
01/07:00am 13.0 8.9 7.7 70 2.7 SSW 19 30 10 16 1013.7 1012.3 0.2
01/06:30am 13.0 10.6 10.0 82 1.6 S 13 19 7 10 1013.1 1011.8 0.2
01/06:00am 12.5 10.2 9.0 79 1.8 S 11 17 6 9 1012.7 1011.4 0.2
01/05:30am 12.3 9.8 8.0 75 2.2 SSW 11 15 6 8 1012.6 1011.3 0.2
01/05:00am 12.2 9.2 7.5 73 2.3 SSW 13 20 7 11 1012.3 1011.0 0.2
01/04:30am 12.6 9.7 8.1 74 2.3 SSW 13 20 7 11 1012.0 1010.6 0.2
01/04:00am 12.7 9.1 8.2 74 2.3 SW 17 24 9 13 1012.0 1010.6 0.2
01/03:30am 12.6 9.6 9.4 81 1.7 SSW 15 24 8 13 1011.7 1010.3 0.2
01/03:00am 13.4 10.1 9.6 78 2.0 SSW 17 26 9 14 1011.5 1010.1 0.2
01/02:30am 13.5 11.0 11.0 85 1.3 SW 15 20 8 11 1011.4 1010.0 0.2
01/02:00am 13.4 11.7 11.1 86 1.2 SSE 11 15 6 8 1011.5 1010.1 0.2
01/01:30am 14.0 11.6 11.5 85 1.4 S 15 20 8 11 1011.6 1010.2 0.2
01/01:00am 13.9 12.2 12.6 92 0.7 SSW 13 19 7 10 1011.7 1010.3 0.2
01/12:30am 14.1 12.0 12.5 90 0.9 SSW 15 20 8 11 1011.6 1010.2 0.2
01/12:00am 14.2 12.2 12.6 90 0.9 WSW 15 22 8 12 1011.4 1010.0 0.2
 
Date/Time
CDT
Tmp

°C
App
Tmp
°C
Dew
Point
°C
Rel
Hum
%
Delta-T

°C
Wind Press
QNH
hPa
Press
MSL
hPa
Rain
since
9 am
mm
Dir
 
Spd
km/h
Gust
km/h
Spd
kts
Gust
kts
28/11:30pm 13.4 12.3 12.0 91 0.8 SW 9 11 5 6 1011.5 1010.1 0.2
28/11:00pm 13.9 12.4 11.8 87 1.1 SSW 11 17 6 9 1011.4 1010.0 0.2
28/10:30pm 14.6 12.3 11.9 84 1.5 SW 15 26 8 14 1011.4 1010.0 0.2
28/10:00pm 14.8 12.3 12.3 85 1.4 SSW 17 24 9 13 1011.2 1009.8 0.2
28/09:30pm 15.0 12.0 12.1 83 1.6 SSW 19 30 10 16 1010.8 1009.4 0.2
28/09:00pm 15.5 13.1 12.6 83 1.6 SSW 17 26 9 14 1010.1 1008.8 0.2
28/08:30pm 16.0 13.8 13.3 84 1.5 SSW 17 26 9 14 1009.4 1008.0 0.2
28/08:00pm 16.9 15.1 14.4 85 1.5 S 17 28 9 15 1008.7 1007.3 0.2
28/07:30pm 17.4 16.3 15.2 87 1.3 S 15 22 8 12 1008.3 1006.9 0.2
28/07:00pm 17.7 16.1 15.0 84 1.6 S 17 28 9 15 1007.8 1006.4 0.2
28/06:30pm 18.5 17.2 14.8 79 2.2 SSW 15 26 8 14 1007.4 1006.1 0.2
28/06:00pm 21.4 20.3 15.3 68 3.7 S 15 24 8 13 1006.9 1005.5 0.2
28/05:30pm 20.7 19.4 15.9 74 2.9 S 17 28 9 15 1006.7 1005.3 0.2
28/05:00pm 21.5 20.3 15.1 67 3.9 S 15 28 8 15 1006.1 1004.7 0.2
28/04:30pm 24.2 22.4 13.4 51 6.4 SW 15 24 8 13 1005.5 1004.1 0.2
28/04:00pm 23.3 23.0 16.4 65 4.3 SSW 13 22 7 12 1005.3 1003.9 0.2
28/03:30pm 21.9 21.7 17.5 76 2.8 W 15 20 8 11 1005.4 1004.0 0.2
28/03:00pm 24.1 22.1 15.6 59 5.2 WSW 20 37 11 20 1004.9 1003.4 0.0
28/02:30pm 26.4 24.0 12.8 43 8.1 WSW 17 26 9 14 1004.7 1003.2 0.0
28/02:00pm 26.7 23.4 11.6 39 8.8 WSW 20 33 11 18 1004.7 1003.2 0.0
28/01:30pm 29.1 25.6 12.1 35 10.1 W 22 33 12 18 1004.8 1003.3 0.0
28/01:00pm 29.9 26.4 10.9 31 11.1 W 20 33 11 18 1004.7 1003.2 0.0
28/12:30pm 29.1 23.9 10.3 31 10.8 W 28 43 15 23 1005.0 1003.6 0.0
28/12:00pm 30.3 26.1 9.8 28 11.8 W 22 37 12 20 1004.9 1003.4 0.0
28/11:30am 29.5 24.0 9.1 28 11.6 WNW 28 44 15 24 1005.2 1003.8 0.0
28/11:00am 30.4 25.1 9.8 28 11.8 WNW 28 46 15 25 1004.8 1003.3 0.0
28/10:59am 30.3 25.2 9.2 27 12.0 WNW 26 46 14 25 1004.9 1003.4 0.0
28/10:30am 29.9 25.5 10.5 30 11.3 NW 24 39 13 21 1004.8 1003.3 0.0
28/10:00am 30.2 25.9 10.7 30 11.3 NW 24 41 13 22 1004.8 1003.3 0.0
28/09:30am 29.6 25.7 10.7 31 11.0 NNW 22 39 12 21 1004.5 1003.1 0.0
28/09:00am 28.5 26.3 10.7 33 10.3 NW 13 32 7 17 1004.4 1003.0 0.0
28/08:30am 26.0 25.1 12.5 43 8.0 N 9 13 5 7 1004.5 1003.1 0.0
28/08:00am 23.8 22.8 12.4 48 6.6 NNE 9 13 5 7 1004.3 1002.9 0.0
28/07:30am 21.9 20.3 12.7 56 5.3 NNE 13 17 7 9 1004.1 1002.7 0.0

Latest Capital City Observations: Canberra | Sydney | Melbourne | Brisbane | Adelaide | Perth | Hobart | Darwin

Other Formats:

Comma delimited format used in spreadsheet applications
http://www.bom.gov.au/fwo/IDS60901/IDS60901.94683.axf

JavaScript Object Notation format (JSON) in row-major order
http://www.bom.gov.au/fwo/IDS60901/IDS60901.94683.json